sensor_id;sensor_type;location;lat;lon;timestamp;P1;durP1;ratioP1;P2;durP2;ratioP2
38252;SDS011;24785;52.372;20.672;2023-07-29T00:05:19;5.38;;;2.10;;
38252;SDS011;24785;52.372;20.672;2023-07-29T00:15:20;7.50;;;2.20;;
38252;SDS011;24785;52.372;20.672;2023-07-29T00:25:21;9.95;;;2.00;;
38252;SDS011;24785;52.372;20.672;2023-07-29T00:35:22;15.15;;;2.85;;
38252;SDS011;24785;52.372;20.672;2023-07-29T00:45:23;7.25;;;2.20;;
38252;SDS011;24785;52.372;20.672;2023-07-29T00:55:26;6.95;;;1.73;;
38252;SDS011;24785;52.372;20.672;2023-07-29T01:05:30;9.98;;;1.88;;
38252;SDS011;24785;52.372;20.672;2023-07-29T01:25:58;18.42;;;2.58;;
38252;SDS011;24785;52.372;20.672;2023-07-29T01:36:02;11.55;;;2.60;;
38252;SDS011;24785;52.372;20.672;2023-07-29T01:46:07;7.75;;;3.58;;
38252;SDS011;24785;52.372;20.672;2023-07-29T01:56:08;7.22;;;3.50;;
38252;SDS011;24785;52.372;20.672;2023-07-29T02:06:09;12.35;;;2.63;;
38252;SDS011;24785;52.372;20.672;2023-07-29T02:16:10;11.18;;;2.58;;
38252;SDS011;24785;52.372;20.672;2023-07-29T02:26:11;10.95;;;3.38;;
38252;SDS011;24785;52.372;20.672;2023-07-29T02:36:12;13.32;;;3.70;;
38252;SDS011;24785;52.372;20.672;2023-07-29T02:46:13;6.47;;;3.27;;
38252;SDS011;24785;52.372;20.672;2023-07-29T02:56:14;6.65;;;3.22;;
38252;SDS011;24785;52.372;20.672;2023-07-29T03:06:15;18.08;;;3.75;;
38252;SDS011;24785;52.372;20.672;2023-07-29T03:16:16;9.23;;;3.20;;
38252;SDS011;24785;52.372;20.672;2023-07-29T03:26:18;16.13;;;3.30;;
38252;SDS011;24785;52.372;20.672;2023-07-29T03:36:19;10.32;;;2.88;;
38252;SDS011;24785;52.372;20.672;2023-07-29T03:46:19;20.45;;;2.60;;
38252;SDS011;24785;52.372;20.672;2023-07-29T03:56:22;5.93;;;2.20;;
38252;SDS011;24785;52.372;20.672;2023-07-29T04:06:23;7.50;;;2.08;;
38252;SDS011;24785;52.372;20.672;2023-07-29T04:16:23;4.80;;;2.38;;
38252;SDS011;24785;52.372;20.672;2023-07-29T04:26:24;8.70;;;2.38;;
38252;SDS011;24785;52.372;20.672;2023-07-29T04:36:25;27.88;;;2.88;;
38252;SDS011;24785;52.372;20.672;2023-07-29T04:46:26;40.10;;;3.55;;
38252;SDS011;24785;52.372;20.672;2023-07-29T04:56:27;22.02;;;3.47;;
38252;SDS011;24785;52.372;20.672;2023-07-29T05:06:28;13.48;;;3.80;;
38252;SDS011;24785;52.372;20.672;2023-07-29T05:16:29;12.32;;;3.83;;
38252;SDS011;24785;52.372;20.672;2023-07-29T05:26:30;10.50;;;4.47;;
38252;SDS011;24785;52.372;20.672;2023-07-29T05:36:31;12.13;;;4.75;;
38252;SDS011;24785;52.372;20.672;2023-07-29T05:46:32;20.08;;;5.72;;
38252;SDS011;24785;52.372;20.672;2023-07-29T05:56:33;9.55;;;6.40;;
38252;SDS011;24785;52.372;20.672;2023-07-29T06:06:33;20.23;;;7.95;;
38252;SDS011;24785;52.372;20.672;2023-07-29T06:16:34;11.15;;;7.30;;
38252;SDS011;24785;52.372;20.672;2023-07-29T06:26:35;12.82;;;7.78;;
38252;SDS011;24785;52.372;20.672;2023-07-29T06:36:36;14.00;;;8.40;;
38252;SDS011;24785;52.372;20.672;2023-07-29T06:46:37;15.55;;;10.27;;
38252;SDS011;24785;52.372;20.672;2023-07-29T06:56:38;22.70;;;11.75;;
38252;SDS011;24785;52.372;20.672;2023-07-29T07:06:39;16.77;;;10.85;;
38252;SDS011;24785;52.372;20.672;2023-07-29T07:16:42;14.20;;;9.50;;
38252;SDS011;24785;52.372;20.672;2023-07-29T07:26:43;14.80;;;9.15;;
38252;SDS011;24785;52.372;20.672;2023-07-29T07:36:44;15.90;;;10.07;;
38252;SDS011;24785;52.372;20.672;2023-07-29T07:46:45;13.23;;;8.50;;
38252;SDS011;24785;52.372;20.672;2023-07-29T07:56:46;12.97;;;8.50;;
38252;SDS011;24785;52.372;20.672;2023-07-29T08:06:47;8.83;;;6.97;;
38252;SDS011;24785;52.372;20.672;2023-07-29T08:16:47;12.03;;;7.43;;
38252;SDS011;24785;52.372;20.672;2023-07-29T08:26:48;12.30;;;6.63;;
38252;SDS011;24785;52.372;20.672;2023-07-29T08:36:49;9.90;;;6.43;;
38252;SDS011;24785;52.372;20.672;2023-07-29T08:46:50;8.55;;;5.20;;
38252;SDS011;24785;52.372;20.672;2023-07-29T08:56:51;5.87;;;4.20;;
38252;SDS011;24785;52.372;20.672;2023-07-29T09:06:53;6.70;;;3.10;;
38252;SDS011;24785;52.372;20.672;2023-07-29T09:16:56;4.28;;;2.80;;
38252;SDS011;24785;52.372;20.672;2023-07-29T09:26:57;4.80;;;2.63;;
38252;SDS011;24785;52.372;20.672;2023-07-29T09:36:58;4.63;;;2.30;;
38252;SDS011;24785;52.372;20.672;2023-07-29T09:47:00;3.10;;;2.28;;
38252;SDS011;24785;52.372;20.672;2023-07-29T09:57:01;3.40;;;2.40;;
38252;SDS011;24785;52.372;20.672;2023-07-29T10:17:06;2.85;;;1.73;;
38252;SDS011;24785;52.372;20.672;2023-07-29T10:27:08;3.35;;;1.70;;
38252;SDS011;24785;52.372;20.672;2023-07-29T10:37:12;2.55;;;1.63;;
38252;SDS011;24785;52.372;20.672;2023-07-29T10:47:13;2.53;;;1.70;;
38252;SDS011;24785;52.372;20.672;2023-07-29T10:57:32;2.15;;;1.55;;
38252;SDS011;24785;52.372;20.672;2023-07-29T11:07:44;4.45;;;1.98;;
38252;SDS011;24785;52.372;20.672;2023-07-29T11:17:47;3.83;;;1.70;;
38252;SDS011;24785;52.372;20.672;2023-07-29T11:27:53;3.38;;;1.60;;
38252;SDS011;24785;52.372;20.672;2023-07-29T11:37:55;2.33;;;1.70;;
38252;SDS011;24785;52.372;20.672;2023-07-29T11:48:00;2.05;;;1.58;;
38252;SDS011;24785;52.372;20.672;2023-07-29T11:58:02;3.20;;;1.58;;
38252;SDS011;24785;52.372;20.672;2023-07-29T12:08:03;2.60;;;1.55;;
38252;SDS011;24785;52.372;20.672;2023-07-29T12:28:05;4.47;;;1.70;;
38252;SDS011;24785;52.372;20.672;2023-07-29T12:38:07;3.03;;;1.50;;
38252;SDS011;24785;52.372;20.672;2023-07-29T12:58:08;2.80;;;1.63;;
38252;SDS011;24785;52.372;20.672;2023-07-29T13:08:09;2.92;;;1.50;;
38252;SDS011;24785;52.372;20.672;2023-07-29T13:18:11;3.75;;;1.80;;
38252;SDS011;24785;52.372;20.672;2023-07-29T13:28:12;4.50;;;1.88;;
38252;SDS011;24785;52.372;20.672;2023-07-29T13:38:13;3.00;;;1.60;;
38252;SDS011;24785;52.372;20.672;2023-07-29T13:48:14;2.55;;;1.38;;
38252;SDS011;24785;52.372;20.672;2023-07-29T13:58:15;3.45;;;1.42;;
38252;SDS011;24785;52.372;20.672;2023-07-29T14:08:16;7.38;;;5.82;;
38252;SDS011;24785;52.372;20.672;2023-07-29T14:28:17;5.80;;;3.73;;
38252;SDS011;24785;52.372;20.672;2023-07-29T14:48:19;1.93;;;1.40;;
38252;SDS011;24785;52.372;20.672;2023-07-29T15:08:20;1.93;;;1.40;;
38252;SDS011;24785;52.372;20.672;2023-07-29T15:18:22;2.35;;;1.38;;
38252;SDS011;24785;52.372;20.672;2023-07-29T15:28:23;2.97;;;1.50;;
38252;SDS011;24785;52.372;20.672;2023-07-29T15:38:23;2.10;;;1.45;;
38252;SDS011;24785;52.372;20.672;2023-07-29T15:48:24;2.75;;;1.50;;
38252;SDS011;24785;52.372;20.672;2023-07-29T15:58:25;4.20;;;1.77;;
38252;SDS011;24785;52.372;20.672;2023-07-29T16:08:26;1.98;;;1.48;;
38252;SDS011;24785;52.372;20.672;2023-07-29T16:18:27;4.35;;;1.67;;
38252;SDS011;24785;52.372;20.672;2023-07-29T16:28:28;2.70;;;1.60;;
38252;SDS011;24785;52.372;20.672;2023-07-29T16:38:29;2.30;;;1.60;;
38252;SDS011;24785;52.372;20.672;2023-07-29T16:58:30;2.57;;;1.67;;
38252;SDS011;24785;52.372;20.672;2023-07-29T17:08:31;2.50;;;1.90;;
38252;SDS011;24785;52.372;20.672;2023-07-29T17:18:32;3.43;;;1.80;;
38252;SDS011;24785;52.372;20.672;2023-07-29T17:28:33;4.85;;;2.20;;
38252;SDS011;24785;52.372;20.672;2023-07-29T17:38:34;4.77;;;1.90;;
38252;SDS011;24785;52.372;20.672;2023-07-29T17:48:35;6.23;;;3.63;;
38252;SDS011;24785;52.372;20.672;2023-07-29T17:58:35;9.07;;;2.87;;
38252;SDS011;24785;52.372;20.672;2023-07-29T18:08:36;4.07;;;2.70;;
38252;SDS011;24785;52.372;20.672;2023-07-29T18:18:37;5.70;;;3.20;;
38252;SDS011;24785;52.372;20.672;2023-07-29T18:28:38;4.40;;;3.00;;
38252;SDS011;24785;52.372;20.672;2023-07-29T18:38:39;6.57;;;3.50;;
38252;SDS011;24785;52.372;20.672;2023-07-29T18:48:40;6.17;;;3.53;;
38252;SDS011;24785;52.372;20.672;2023-07-29T18:58:41;4.93;;;3.43;;
38252;SDS011;24785;52.372;20.672;2023-07-29T19:08:41;3.88;;;2.83;;
38252;SDS011;24785;52.372;20.672;2023-07-29T19:18:44;4.65;;;3.15;;
38252;SDS011;24785;52.372;20.672;2023-07-29T19:28:45;5.53;;;3.30;;
38252;SDS011;24785;52.372;20.672;2023-07-29T19:38:45;4.28;;;3.03;;
38252;SDS011;24785;52.372;20.672;2023-07-29T19:48:46;5.87;;;4.10;;
38252;SDS011;24785;52.372;20.672;2023-07-29T19:58:52;5.80;;;3.65;;
38252;SDS011;24785;52.372;20.672;2023-07-29T20:08:52;5.60;;;3.63;;
38252;SDS011;24785;52.372;20.672;2023-07-29T20:18:53;6.40;;;3.83;;
38252;SDS011;24785;52.372;20.672;2023-07-29T20:28:54;8.63;;;3.90;;
38252;SDS011;24785;52.372;20.672;2023-07-29T20:38:57;5.85;;;3.47;;
38252;SDS011;24785;52.372;20.672;2023-07-29T20:48:58;5.70;;;2.53;;
38252;SDS011;24785;52.372;20.672;2023-07-29T20:59:01;10.68;;;2.50;;
38252;SDS011;24785;52.372;20.672;2023-07-29T21:09:02;6.28;;;2.33;;
38252;SDS011;24785;52.372;20.672;2023-07-29T21:19:04;4.50;;;2.17;;
38252;SDS011;24785;52.372;20.672;2023-07-29T21:29:05;5.05;;;2.00;;
38252;SDS011;24785;52.372;20.672;2023-07-29T21:39:06;5.50;;;1.75;;
38252;SDS011;24785;52.372;20.672;2023-07-29T21:49:07;5.35;;;2.20;;
38252;SDS011;24785;52.372;20.672;2023-07-29T21:59:08;4.90;;;1.88;;
38252;SDS011;24785;52.372;20.672;2023-07-29T22:09:08;8.00;;;2.75;;
38252;SDS011;24785;52.372;20.672;2023-07-29T22:19:10;5.68;;;2.50;;
38252;SDS011;24785;52.372;20.672;2023-07-29T22:29:10;3.75;;;2.10;;
38252;SDS011;24785;52.372;20.672;2023-07-29T22:39:11;6.72;;;2.65;;
38252;SDS011;24785;52.372;20.672;2023-07-29T22:49:12;6.50;;;2.65;;
38252;SDS011;24785;52.372;20.672;2023-07-29T22:59:13;6.95;;;3.30;;
38252;SDS011;24785;52.372;20.672;2023-07-29T23:09:14;5.10;;;2.63;;
38252;SDS011;24785;52.372;20.672;2023-07-29T23:19:15;6.57;;;2.92;;
38252;SDS011;24785;52.372;20.672;2023-07-29T23:29:16;8.15;;;3.20;;
38252;SDS011;24785;52.372;20.672;2023-07-29T23:39:17;5.05;;;3.15;;
38252;SDS011;24785;52.372;20.672;2023-07-29T23:49:17;7.45;;;3.13;;
38252;SDS011;24785;52.372;20.672;2023-07-29T23:59:18;8.95;;;3.50;;
